Time;durP1;ratioP1;P1;durP2;ratioP2;P2;SDS_P1;SDS_P2;PMS_P1;PMS_P2;Temp;Humidity;BMP_temperature;BMP_pressure;BME280_temperature;BME280_humidity;BME280_pressure;Samples;Min_cycle;Max_cycle;Signal;HPM_P1;HPM_P2
2023/01/26 00:02:26;;;;;;;370.58;46.53;;;;;;;;;;4970218;28;20064;-80
2023/01/26 00:04:53;;;;;;;306.50;45.55;;;;;;;;;;4966845;28;20086;-81
2023/01/26 00:07:20;;;;;;;281.42;44.90;;;;;;;;;;4964827;28;20687;-82
2023/01/26 00:09:47;;;;;;;364.10;46.33;;;;;;;;;;4970298;28;20062;-81
2023/01/26 00:12:14;;;;;;;323.27;46.20;;;;;;;;;;4969059;28;20097;-81
2023/01/26 00:14:51;;;;;;;323.60;47.65;;;;;;;;;;4966933;28;20062;-81
2023/01/26 00:17:26;;;;;;;300.63;45.60;;;;;;;;;;4970594;28;20058;-81
2023/01/26 00:19:55;;;;;;;270.15;43.65;;;;;;;;;;4972003;28;20418;-81
2023/01/26 00:22:22;;;;;;;316.67;45.22;;;;;;;;;;4966880;28;20058;-80
2023/01/26 00:24:49;;;;;;;388.77;47.45;;;;;;;;;;4967878;28;20047;-82
2023/01/26 00:27:17;;;;;;;337.73;43.78;;;;;;;;;;4971385;28;20050;-82
2023/01/26 00:29:44;;;;;;;287.13;43.85;;;;;;;;;;4963213;28;20050;-78
2023/01/26 00:32:11;;;;;;;394.25;45.65;;;;;;;;;;4971210;28;20050;-81
2023/01/26 00:34:40;;;;;;;319.70;44.95;;;;;;;;;;4968017;28;20055;-79
2023/01/26 00:37:07;;;;;;;338.10;44.42;;;;;;;;;;4968383;28;20061;-81
2023/01/26 00:39:34;;;;;;;309.42;43.15;;;;;;;;;;4968826;28;20054;-80
2023/01/26 00:42:08;;;;;;;278.90;43.83;;;;;;;;;;4971495;28;20437;-81
2023/01/26 00:44:37;;;;;;;312.50;42.00;;;;;;;;;;4970471;28;20512;-81
2023/01/26 00:47:04;;;;;;;257.20;43.80;;;;;;;;;;4969076;28;20113;-81
2023/01/26 00:49:31;;;;;;;273.67;41.88;;;;;;;;;;4969315;28;20062;-81
2023/01/26 00:52:00;;;;;;;320.15;42.75;;;;;;;;;;4966325;28;20054;-80
2023/01/26 00:54:28;;;;;;;300.08;44.03;;;;;;;;;;4969099;28;20051;-82
2023/01/26 00:56:55;;;;;;;298.67;43.47;;;;;;;;;;4969551;28;20055;-80
2023/01/26 00:59:22;;;;;;;321.20;43.78;;;;;;;;;;4970355;28;20043;-81
2023/01/26 01:01:50;;;;;;;286.80;42.72;;;;;;;;;;4969744;28;20050;-82
2023/01/26 01:04:17;;;;;;;313.63;44.15;;;;;;;;;;4964602;28;20046;-81
2023/01/26 01:06:44;;;;;;;323.00;46.53;;;;;;;;;;4961306;28;20145;-81
2023/01/26 01:09:13;;;;;;;336.85;45.42;;;;;;;;;;4966744;28;20042;-81
2023/01/26 01:11:41;;;;;;;338.27;45.88;;;;;;;;;;4965446;28;20066;-82
2023/01/26 01:14:09;;;;;;;293.23;43.35;;;;;;;;;;4966090;28;20533;-82
2023/01/26 01:16:36;;;;;;;307.40;42.90;;;;;;;;;;4969724;28;20055;-82
2023/01/26 01:19:03;;;;;;;326.90;45.20;;;;;;;;;;4960152;28;20051;-73
2023/01/26 01:21:31;;;;;;;348.75;43.72;;;;;;;;;;4962001;28;20054;-80
2023/01/26 01:23:59;;;;;;;309.70;43.90;;;;;;;;;;4960776;28;20047;-80
2023/01/26 01:26:27;;;;;;;323.65;45.55;;;;;;;;;;4957539;28;20051;-72
2023/01/26 01:28:56;;;;;;;294.25;44.83;;;;;;;;;;4958655;28;20425;-81
2023/01/26 01:31:24;;;;;;;326.92;43.42;;;;;;;;;;4963646;28;20054;-81
2023/01/26 01:33:52;;;;;;;269.00;42.45;;;;;;;;;;4964706;28;20174;-82
2023/01/26 01:36:19;;;;;;;299.65;44.17;;;;;;;;;;4964105;28;20469;-81
2023/01/26 01:38:47;;;;;;;305.92;42.05;;;;;;;;;;4961827;28;20058;-79
2023/01/26 01:41:14;;;;;;;288.27;42.65;;;;;;;;;;4965967;28;20400;-81
2023/01/26 01:43:43;;;;;;;270.60;42.65;;;;;;;;;;4961423;28;20391;-81
2023/01/26 01:46:15;;;;;;;316.40;42.67;;;;;;;;;;4961699;28;20051;-81
2023/01/26 01:48:46;;;;;;;328.98;45.13;;;;;;;;;;4967367;28;20054;-82
2023/01/26 01:51:15;;;;;;;334.25;43.83;;;;;;;;;;4962118;28;20051;-81
2023/01/26 01:53:44;;;;;;;319.10;43.65;;;;;;;;;;4965209;28;20454;-81
2023/01/26 01:56:13;;;;;;;335.75;45.75;;;;;;;;;;4963480;28;20051;-81
2023/01/26 01:58:42;;;;;;;322.77;45.40;;;;;;;;;;4963484;28;20062;-82
2023/01/26 02:01:11;;;;;;;336.38;45.88;;;;;;;;;;4962517;28;20046;-81
2023/01/26 02:03:39;;;;;;;363.48;45.35;;;;;;;;;;4962858;28;20055;-81
2023/01/26 02:06:08;;;;;;;319.70;44.42;;;;;;;;;;4960020;28;20055;-81
2023/01/26 02:08:38;;;;;;;326.15;44.35;;;;;;;;;;4971357;28;21579;-81
2023/01/26 02:11:08;;;;;;;337.30;43.45;;;;;;;;;;4968200;28;20046;-81
2023/01/26 02:13:35;;;;;;;286.63;42.85;;;;;;;;;;4958936;28;20049;-79
2023/01/26 02:16:03;;;;;;;318.15;41.90;;;;;;;;;;4961442;28;20396;-80
2023/01/26 02:18:31;;;;;;;375.67;45.15;;;;;;;;;;4953198;28;20059;-82
2023/01/26 02:21:01;;;;;;;377.77;45.08;;;;;;;;;;4956850;28;20521;-82
2023/01/26 02:23:36;;;;;;;314.92;43.95;;;;;;;;;;4965397;28;20051;-81
2023/01/26 02:26:10;;;;;;;364.95;45.55;;;;;;;;;;4972755;28;20049;-81
2023/01/26 02:28:37;;;;;;;343.17;44.15;;;;;;;;;;4964951;28;20502;-80
2023/01/26 02:31:05;;;;;;;322.80;44.90;;;;;;;;;;4967531;28;20047;-82
2023/01/26 02:33:33;;;;;;;350.45;44.38;;;;;;;;;;4959798;28;20051;-75
2023/01/26 02:36:01;;;;;;;363.25;46.80;;;;;;;;;;4981951;28;20066;-81
2023/01/26 02:38:31;;;;;;;365.60;44.85;;;;;;;;;;4966644;28;20066;-82
2023/01/26 02:41:00;;;;;;;415.33;47.85;;;;;;;;;;4956911;28;20083;-82
2023/01/26 02:43:28;;;;;;;341.65;45.42;;;;;;;;;;4966364;28;20051;-82
2023/01/26 02:45:55;;;;;;;380.33;46.17;;;;;;;;;;4959511;28;20057;-79
2023/01/26 02:51:04;;;;;;;384.08;48.45;;;;;;;;;;4965436;28;20042;-72
2023/01/26 02:53:32;;;;;;;359.23;45.83;;;;;;;;;;4966094;28;20070;-81
2023/01/26 02:55:58;;;;;;;482.65;49.08;;;;;;;;;;4969917;28;20062;-82
2023/01/26 02:58:25;;;;;;;361.40;46.67;;;;;;;;;;4964921;28;20047;-82
2023/01/26 03:00:54;;;;;;;378.05;44.92;;;;;;;;;;4968183;28;20513;-80
2023/01/26 03:03:24;;;;;;;348.00;44.67;;;;;;;;;;4968872;28;20062;-82
2023/01/26 03:05:51;;;;;;;349.48;44.83;;;;;;;;;;4967276;28;20054;-82
2023/01/26 03:08:18;;;;;;;377.52;46.45;;;;;;;;;;4968229;28;20407;-82
2023/01/26 03:10:46;;;;;;;431.02;46.53;;;;;;;;;;4968212;28;20054;-81
2023/01/26 03:13:14;;;;;;;393.55;46.80;;;;;;;;;;4968436;28;20043;-81
2023/01/26 03:15:51;;;;;;;371.02;45.65;;;;;;;;;;4969328;28;20070;-82
2023/01/26 03:29:21;;;;;;;415.77;44.05;;;;;;;;;;4968075;28;20512;-83
2023/01/26 03:31:49;;;;;;;423.15;43.55;;;;;;;;;;4971380;28;20060;-81
2023/01/26 03:34:17;;;;;;;289.25;37.85;;;;;;;;;;4971808;28;20055;-82
2023/01/26 03:36:45;;;;;;;385.70;39.10;;;;;;;;;;4972709;28;20417;-81
2023/01/26 03:41:06;;;;;;;280.40;34.60;;;;;;;;;;4968754;28;20050;-81
2023/01/26 03:58:32;;;;;;;96.38;6.28;;;;;;;;;;4968376;28;20059;-81
2023/01/26 04:00:59;;;;;;;68.40;4.75;;;;;;;;;;4962366;28;20078;-80
2023/01/26 04:08:58;;;;;;;80.20;5.90;;;;;;;;;;4970851;28;20046;-82
2023/01/26 04:11:25;;;;;;;85.55;5.82;;;;;;;;;;4970939;28;21277;-82
2023/01/26 04:22:07;;;;;;;80.05;5.65;;;;;;;;;;4969845;28;20054;-79
2023/01/26 04:24:35;;;;;;;77.93;6.20;;;;;;;;;;4968328;28;20406;-79
2023/01/26 04:27:02;;;;;;;74.05;5.40;;;;;;;;;;4966802;28;20517;-79
2023/01/26 04:29:29;;;;;;;66.18;4.88;;;;;;;;;;4968587;28;20046;-79
2023/01/26 04:31:56;;;;;;;71.90;5.55;;;;;;;;;;4968810;28;20051;-79
2023/01/26 04:34:24;;;;;;;76.97;7.18;;;;;;;;;;4971581;28;20050;-79
2023/01/26 04:36:51;;;;;;;70.82;5.45;;;;;;;;;;4966180;28;20651;-79
2023/01/26 04:39:20;;;;;;;70.43;5.18;;;;;;;;;;4970336;28;20055;-80
2023/01/26 04:41:47;;;;;;;67.97;5.50;;;;;;;;;;4970081;28;20070;-80
2023/01/26 04:44:15;;;;;;;67.80;5.28;;;;;;;;;;4970636;28;20061;-80
2023/01/26 04:46:43;;;;;;;72.38;5.13;;;;;;;;;;4969182;28;20069;-80
2023/01/26 04:49:10;;;;;;;63.70;4.75;;;;;;;;;;4968020;28;20049;-80
2023/01/26 04:51:37;;;;;;;63.95;6.10;;;;;;;;;;4968250;28;20517;-78
2023/01/26 04:54:04;;;;;;;66.10;5.63;;;;;;;;;;4968106;28;20058;-77
2023/01/26 04:56:34;;;;;;;68.60;4.88;;;;;;;;;;4968303;28;20050;-79
2023/01/26 04:59:03;;;;;;;47.38;4.35;;;;;;;;;;4968089;28;20058;-79
2023/01/26 05:01:30;;;;;;;55.83;4.20;;;;;;;;;;4981732;28;20057;-79
2023/01/26 05:04:00;;;;;;;70.70;4.30;;;;;;;;;;4968166;28;20042;-79
2023/01/26 05:06:27;;;;;;;60.72;4.72;;;;;;;;;;4961612;28;20070;-79
2023/01/26 05:08:54;;;;;;;86.40;5.88;;;;;;;;;;4968369;28;20067;-79
2023/01/26 05:11:21;;;;;;;74.95;5.00;;;;;;;;;;4970188;28;20376;-80
2023/01/26 05:13:50;;;;;;;56.97;4.13;;;;;;;;;;4965800;28;20055;-80
2023/01/26 05:16:18;;;;;;;66.45;5.25;;;;;;;;;;4980463;28;20062;-78
2023/01/26 05:18:45;;;;;;;77.18;4.55;;;;;;;;;;4965713;28;20062;-79
2023/01/26 05:21:13;;;;;;;61.35;5.25;;;;;;;;;;4956473;28;20051;-77
2023/01/26 05:23:40;;;;;;;68.90;5.90;;;;;;;;;;4966182;28;20442;-79
2023/01/26 05:26:08;;;;;;;64.43;5.28;;;;;;;;;;4967740;28;20117;-79
2023/01/26 05:28:35;;;;;;;61.17;4.45;;;;;;;;;;4965524;28;20530;-77
2023/01/26 05:31:04;;;;;;;68.80;5.95;;;;;;;;;;4965381;28;20063;-75
2023/01/26 05:33:31;;;;;;;85.18;4.47;;;;;;;;;;4959394;28;20522;-80
2023/01/26 05:35:58;;;;;;;61.95;5.05;;;;;;;;;;4966899;28;20043;-77
2023/01/26 05:38:26;;;;;;;69.07;4.80;;;;;;;;;;4965590;28;20517;-80
2023/01/26 05:40:53;;;;;;;72.60;5.57;;;;;;;;;;4970164;28;20078;-79
2023/01/26 05:43:20;;;;;;;69.18;5.85;;;;;;;;;;4967894;28;20499;-79
2023/01/26 05:45:47;;;;;;;58.67;4.32;;;;;;;;;;4963243;28;20066;-79
2023/01/26 05:48:16;;;;;;;88.53;5.35;;;;;;;;;;4966721;28;20050;-79
2023/01/26 05:50:44;;;;;;;73.15;5.82;;;;;;;;;;4967192;28;20070;-79
2023/01/26 05:53:11;;;;;;;62.47;4.78;;;;;;;;;;4966229;28;20062;-82
2023/01/26 05:55:38;;;;;;;54.30;5.22;;;;;;;;;;4966022;28;20051;-77
2023/01/26 05:58:06;;;;;;;67.78;7.07;;;;;;;;;;4968099;28;20051;-77
2023/01/26 06:00:33;;;;;;;80.80;6.13;;;;;;;;;;4968432;28;20059;-79
2023/01/26 06:03:00;;;;;;;93.07;11.13;;;;;;;;;;4968098;28;20513;-78
2023/01/26 06:05:29;;;;;;;65.22;11.65;;;;;;;;;;4981215;28;20043;-79
2023/01/26 06:07:56;;;;;;;109.93;22.02;;;;;;;;;;4963822;28;20063;-79
2023/01/26 06:10:23;;;;;;;76.28;19.98;;;;;;;;;;4966153;28;20081;-79
2023/01/26 06:12:50;;;;;;;82.82;16.45;;;;;;;;;;4968162;28;20057;-78
2023/01/26 06:15:18;;;;;;;64.93;7.22;;;;;;;;;;4966076;28;20402;-74
2023/01/26 06:17:45;;;;;;;79.20;8.82;;;;;;;;;;4961602;28;20062;-78
2023/01/26 06:20:13;;;;;;;79.32;10.30;;;;;;;;;;4968290;28;20051;-78
2023/01/26 06:22:42;;;;;;;83.82;15.05;;;;;;;;;;4966818;28;20059;-79
2023/01/26 06:25:09;;;;;;;69.60;7.18;;;;;;;;;;4965888;28;20055;-79
2023/01/26 06:27:40;;;;;;;74.90;7.80;;;;;;;;;;4968338;28;20083;-76
2023/01/26 06:30:08;;;;;;;57.53;6.47;;;;;;;;;;4957568;28;20483;-73
2023/01/26 06:32:36;;;;;;;56.80;5.95;;;;;;;;;;4964328;28;20055;-79
2023/01/26 06:35:07;;;;;;;66.55;6.78;;;;;;;;;;4961852;28;20046;-69
2023/01/26 06:37:34;;;;;;;47.88;4.28;;;;;;;;;;4968662;28;20074;-79
2023/01/26 06:40:03;;;;;;;75.15;6.43;;;;;;;;;;4967135;28;20479;-77
2023/01/26 06:42:30;;;;;;;64.28;6.85;;;;;;;;;;4962904;28;20405;-78
2023/01/26 06:44:58;;;;;;;60.47;6.00;;;;;;;;;;4964160;28;20046;-79
2023/01/26 06:47:25;;;;;;;79.63;6.75;;;;;;;;;;4963447;28;20557;-80
2023/01/26 06:49:53;;;;;;;70.60;6.45;;;;;;;;;;4965235;28;20085;-80
2023/01/26 06:52:27;;;;;;;73.82;5.40;;;;;;;;;;4962433;28;20522;-79
2023/01/26 06:54:54;;;;;;;45.75;3.65;;;;;;;;;;4966117;28;20086;-79
2023/01/26 06:57:23;;;;;;;60.60;5.43;;;;;;;;;;4963768;28;20058;-73
2023/01/26 06:59:50;;;;;;;61.17;5.28;;;;;;;;;;4967899;28;20061;-79
2023/01/26 07:02:18;;;;;;;66.43;5.13;;;;;;;;;;4963251;28;20051;-79
2023/01/26 07:04:46;;;;;;;70.05;6.25;;;;;;;;;;4965272;28;20074;-79
2023/01/26 07:07:13;;;;;;;57.85;5.65;;;;;;;;;;4964765;28;20063;-78
2023/01/26 07:09:40;;;;;;;63.88;18.42;;;;;;;;;;4964408;28;20409;-80
2023/01/26 07:12:08;;;;;;;80.85;9.52;;;;;;;;;;4969671;28;20059;-79
2023/01/26 07:14:36;;;;;;;50.63;5.07;;;;;;;;;;4962890;28;20148;-79
2023/01/26 07:17:04;;;;;;;62.78;7.55;;;;;;;;;;4968313;28;20069;-77
2023/01/26 07:19:32;;;;;;;52.85;4.78;;;;;;;;;;4984700;28;20059;-79
2023/01/26 07:22:00;;;;;;;63.08;8.18;;;;;;;;;;4967144;28;20443;-78
2023/01/26 07:24:27;;;;;;;50.90;6.43;;;;;;;;;;4963764;28;20065;-79
2023/01/26 07:26:55;;;;;;;50.92;5.20;;;;;;;;;;4960195;28;20051;-74
2023/01/26 07:29:22;;;;;;;52.17;4.93;;;;;;;;;;4966805;28;20053;-79
2023/01/26 07:31:51;;;;;;;52.72;5.55;;;;;;;;;;4966916;28;20051;-79
2023/01/26 07:34:18;;;;;;;42.88;4.30;;;;;;;;;;4963256;28;20051;-80
2023/01/26 07:36:45;;;;;;;50.72;5.55;;;;;;;;;;4966124;28;20051;-79
2023/01/26 07:39:12;;;;;;;52.05;5.22;;;;;;;;;;4966650;28;20055;-78
2023/01/26 07:41:39;;;;;;;54.53;4.82;;;;;;;;;;4962521;28;20050;-79
2023/01/26 07:44:10;;;;;;;70.72;5.78;;;;;;;;;;4968911;28;20046;-79
2023/01/26 07:46:37;;;;;;;58.50;5.90;;;;;;;;;;4965047;28;20046;-79
2023/01/26 07:49:06;;;;;;;47.67;6.32;;;;;;;;;;4963869;28;20485;-79
2023/01/26 07:51:33;;;;;;;50.88;5.75;;;;;;;;;;4962516;28;20058;-79
2023/01/26 07:54:01;;;;;;;57.13;5.65;;;;;;;;;;4959625;28;20059;-78
2023/01/26 07:56:28;;;;;;;77.03;5.15;;;;;;;;;;4966872;28;20129;-79
2023/01/26 07:58:55;;;;;;;59.25;4.35;;;;;;;;;;4963403;28;20055;-78
2023/01/26 08:01:23;;;;;;;33.20;3.72;;;;;;;;;;4967369;28;20042;-79
2023/01/26 08:03:52;;;;;;;45.30;4.20;;;;;;;;;;4959906;28;20478;-79
2023/01/26 08:06:20;;;;;;;66.80;4.40;;;;;;;;;;4968209;28;20047;-79
2023/01/26 08:08:50;;;;;;;52.45;4.63;;;;;;;;;;4966015;28;20042;-73
2023/01/26 08:11:17;;;;;;;45.72;3.60;;;;;;;;;;4965098;28;20047;-71
2023/01/26 08:13:44;;;;;;;54.20;5.40;;;;;;;;;;4973817;28;20062;-79
2023/01/26 08:16:12;;;;;;;52.28;4.60;;;;;;;;;;4965647;28;20046;-78
2023/01/26 08:18:39;;;;;;;62.03;5.68;;;;;;;;;;4967859;28;20066;-79
2023/01/26 08:21:07;;;;;;;58.20;5.93;;;;;;;;;;4966937;28;20058;-78
2023/01/26 08:23:35;;;;;;;49.53;5.63;;;;;;;;;;4965089;28;20058;-80
2023/01/26 08:26:03;;;;;;;51.72;4.63;;;;;;;;;;4968693;28;20061;-78
2023/01/26 08:28:30;;;;;;;53.95;4.20;;;;;;;;;;4967403;28;20051;-77
2023/01/26 08:30:57;;;;;;;58.45;5.78;;;;;;;;;;4970427;28;20050;-79
2023/01/26 08:33:25;;;;;;;69.32;4.82;;;;;;;;;;4962011;28;20062;-79
2023/01/26 08:35:52;;;;;;;49.95;3.88;;;;;;;;;;4965598;28;20043;-79
2023/01/26 08:38:19;;;;;;;50.03;4.07;;;;;;;;;;4964544;28;20047;-79
2023/01/26 08:40:53;;;;;;;37.67;4.32;;;;;;;;;;4969405;28;20051;-77
2023/01/26 08:43:20;;;;;;;50.10;4.43;;;;;;;;;;4977446;28;20055;-78
2023/01/26 08:45:48;;;;;;;49.55;5.28;;;;;;;;;;4966430;28;20074;-79
2023/01/26 08:48:15;;;;;;;55.00;5.97;;;;;;;;;;4967635;28;20061;-77
2023/01/26 08:50:42;;;;;;;45.20;5.40;;;;;;;;;;4968348;28;20054;-77
2023/01/26 08:53:09;;;;;;;44.42;4.68;;;;;;;;;;4965078;28;20078;-78
2023/01/26 08:55:37;;;;;;;55.90;5.75;;;;;;;;;;4969591;28;20050;-77
2023/01/26 08:58:05;;;;;;;56.92;5.63;;;;;;;;;;4968540;28;20062;-79
2023/01/26 09:00:33;;;;;;;51.22;4.00;;;;;;;;;;4962383;28;20043;-79
2023/01/26 09:03:00;;;;;;;38.08;3.83;;;;;;;;;;4966472;28;20047;-78
2023/01/26 09:05:27;;;;;;;38.35;3.80;;;;;;;;;;4965946;28;20051;-80
2023/01/26 09:07:55;;;;;;;48.67;6.88;;;;;;;;;;4965089;28;20069;-79
2023/01/26 09:10:22;;;;;;;41.65;4.22;;;;;;;;;;4984618;28;20058;-79
2023/01/26 09:12:49;;;;;;;44.97;3.97;;;;;;;;;;4958460;28;20057;-80
2023/01/26 09:15:18;;;;;;;47.45;4.95;;;;;;;;;;4971257;28;20509;-79
2023/01/26 09:17:45;;;;;;;34.83;3.40;;;;;;;;;;4963142;28;20541;-80
2023/01/26 09:20:12;;;;;;;40.45;4.07;;;;;;;;;;4966946;28;20046;-79
2023/01/26 09:22:41;;;;;;;36.58;3.83;;;;;;;;;;4958014;28;20446;-77
2023/01/26 09:25:10;;;;;;;41.63;4.95;;;;;;;;;;4967513;28;20605;-76
2023/01/26 09:27:37;;;;;;;48.30;4.22;;;;;;;;;;4979068;28;20050;-80
2023/01/26 09:30:05;;;;;;;43.45;4.18;;;;;;;;;;4967776;28;20510;-75
2023/01/26 09:32:34;;;;;;;41.38;3.45;;;;;;;;;;4961178;28;20065;-80
2023/01/26 09:35:01;;;;;;;39.90;3.88;;;;;;;;;;4968312;28;20042;-78
2023/01/26 09:37:28;;;;;;;40.45;3.97;;;;;;;;;;4967318;28;20073;-79
2023/01/26 09:39:55;;;;;;;48.08;4.32;;;;;;;;;;4967860;28;20409;-78
2023/01/26 09:42:38;;;;;;;31.70;3.45;;;;;;;;;;4965879;28;20057;-78
2023/01/26 09:45:13;;;;;;;35.23;3.10;;;;;;;;;;4963944;28;20055;-79
2023/01/26 09:47:50;;;;;;;42.22;3.55;;;;;;;;;;4963576;28;20059;-78
2023/01/26 09:50:19;;;;;;;31.70;2.92;;;;;;;;;;4971173;28;20047;-80
2023/01/26 09:52:51;;;;;;;33.75;3.22;;;;;;;;;;4987276;28;20422;-78
2023/01/26 09:55:21;;;;;;;42.70;3.38;;;;;;;;;;4969705;28;20054;-78
2023/01/26 09:57:49;;;;;;;42.25;3.58;;;;;;;;;;4969428;28;20508;-78
2023/01/26 10:00:20;;;;;;;36.97;3.65;;;;;;;;;;4960937;28;20050;-78
2023/01/26 10:02:54;;;;;;;31.85;3.30;;;;;;;;;;4966536;28;20076;-80
2023/01/26 10:05:28;;;;;;;25.40;2.40;;;;;;;;;;4967353;28;20053;-74
2023/01/26 10:07:55;;;;;;;39.67;5.00;;;;;;;;;;4966751;28;20071;-79
2023/01/26 10:10:27;;;;;;;34.65;4.38;;;;;;;;;;4968136;28;20347;-78
2023/01/26 10:12:54;;;;;;;29.80;2.58;;;;;;;;;;4967202;28;20058;-79
2023/01/26 10:15:30;;;;;;;39.42;3.00;;;;;;;;;;4964822;28;20046;-80
2023/01/26 10:18:01;;;;;;;31.98;3.17;;;;;;;;;;4971126;28;20076;-75
2023/01/26 10:20:31;;;;;;;29.17;3.53;;;;;;;;;;4967332;28;20093;-79
2023/01/26 10:23:01;;;;;;;32.30;3.22;;;;;;;;;;4965372;28;20069;-78
2023/01/26 10:25:33;;;;;;;40.17;3.45;;;;;;;;;;4966102;28;20058;-77
2023/01/26 10:28:01;;;;;;;37.03;3.47;;;;;;;;;;4967261;28;20055;-76
2023/01/26 10:30:29;;;;;;;35.70;3.92;;;;;;;;;;4965423;28;20082;-79
2023/01/26 10:32:56;;;;;;;31.58;3.42;;;;;;;;;;4963692;28;20058;-79
2023/01/26 10:35:25;;;;;;;32.85;3.38;;;;;;;;;;4961169;28;20073;-78
2023/01/26 10:37:53;;;;;;;28.55;2.78;;;;;;;;;;4960638;28;20051;-79
2023/01/26 10:40:20;;;;;;;27.05;3.00;;;;;;;;;;4966747;28;20073;-79
2023/01/26 10:42:56;;;;;;;26.83;3.67;;;;;;;;;;4967362;28;20058;-73
2023/01/26 10:45:27;;;;;;;34.67;4.20;;;;;;;;;;4968073;28;20461;-78
2023/01/26 10:48:05;;;;;;;39.80;4.13;;;;;;;;;;4968149;28;20046;-79
2023/01/26 10:50:34;;;;;;;53.88;3.35;;;;;;;;;;4964207;28;20168;-79
2023/01/26 10:53:02;;;;;;;38.33;3.47;;;;;;;;;;4968116;28;20573;-79
2023/01/26 10:55:30;;;;;;;21.27;2.80;;;;;;;;;;4965889;28;20057;-78
2023/01/26 10:57:58;;;;;;;33.83;3.65;;;;;;;;;;4963394;28;20053;-79
2023/01/26 11:00:27;;;;;;;29.60;3.20;;;;;;;;;;4966577;28;20065;-79
2023/01/26 11:02:56;;;;;;;35.97;4.10;;;;;;;;;;4966288;28;20398;-77
2023/01/26 11:05:24;;;;;;;27.13;2.92;;;;;;;;;;4966880;28;20410;-79
2023/01/26 11:07:57;;;;;;;26.65;2.40;;;;;;;;;;4966722;28;20047;-79
2023/01/26 11:10:24;;;;;;;;;;;;;;;;;;4961171;28;20058;-79
2023/01/26 11:12:52;;;;;;;30.70;3.15;;;;;;;;;;4965110;28;19949;-79
2023/01/26 11:15:20;;;;;;;30.42;2.70;;;;;;;;;;4964333;28;20061;-78
2023/01/26 11:17:51;;;;;;;31.85;2.83;;;;;;;;;;4966198;28;20540;-79
2023/01/26 11:20:42;;;;;;;33.00;3.83;;;;;;;;;;4958188;28;20055;-79
2023/01/26 11:23:15;;;;;;;23.23;2.28;;;;;;;;;;4950723;28;20403;-73
2023/01/26 11:25:47;;;;;;;26.52;2.30;;;;;;;;;;4968059;28;20098;-77
2023/01/26 11:28:22;;;;;;;34.13;3.00;;;;;;;;;;4965425;28;20406;-78
2023/01/26 11:30:58;;;;;;;17.33;2.30;;;;;;;;;;4964430;28;20047;-79
2023/01/26 11:33:29;;;;;;;18.63;2.15;;;;;;;;;;4962144;28;20050;-79
2023/01/26 11:36:01;;;;;;;20.00;2.15;;;;;;;;;;4962212;28;20504;-80
2023/01/26 11:38:36;;;;;;;19.52;1.85;;;;;;;;;;4955839;28;20055;-78
2023/01/26 11:41:09;;;;;;;21.02;1.95;;;;;;;;;;4966597;28;20102;-79
2023/01/26 11:43:50;;;;;;;22.08;2.33;;;;;;;;;;4966244;28;20073;-78
2023/01/26 11:46:22;;;;;;;17.15;2.38;;;;;;;;;;4964433;28;20058;-78
2023/01/26 11:48:54;;;;;;;16.77;2.03;;;;;;;;;;4967773;28;20059;-78
2023/01/26 11:51:28;;;;;;;27.90;2.80;;;;;;;;;;4970493;28;20066;-79
2023/01/26 11:54:10;;;;;;;26.67;3.63;;;;;;;;;;4966299;28;20058;-79
2023/01/26 11:56:44;;;;;;;23.63;2.03;;;;;;;;;;4968034;28;20043;-77
2023/01/26 11:59:14;;;;;;;25.27;2.15;;;;;;;;;;4962926;28;20062;-79
2023/01/26 12:01:44;;;;;;;26.58;2.25;;;;;;;;;;4965752;28;20054;-78
2023/01/26 12:04:15;;;;;;;22.00;2.10;;;;;;;;;;4971124;28;20038;-79
2023/01/26 12:06:44;;;;;;;19.52;1.77;;;;;;;;;;4960472;28;20051;-77
2023/01/26 12:09:17;;;;;;;18.02;1.95;;;;;;;;;;4967891;28;20129;-76
2023/01/26 12:11:48;;;;;;;19.38;2.13;;;;;;;;;;4965959;28;20134;-79
2023/01/26 12:14:18;;;;;;;24.33;2.13;;;;;;;;;;4967253;28;20066;-79
2023/01/26 12:16:53;;;;;;;18.80;2.25;;;;;;;;;;4962331;28;20057;-78
2023/01/26 12:19:26;;;;;;;21.73;2.35;;;;;;;;;;4962325;28;20043;-77
2023/01/26 12:21:55;;;;;;;18.52;2.30;;;;;;;;;;4964936;28;20055;-78
2023/01/26 12:24:33;;;;;;;16.58;2.10;;;;;;;;;;4970084;28;20051;-77
2023/01/26 12:27:04;;;;;;;21.40;2.00;;;;;;;;;;4967003;28;20438;-77
2023/01/26 12:29:37;;;;;;;16.85;1.92;;;;;;;;;;4971532;28;20058;-78
2023/01/26 12:32:08;;;;;;;13.02;1.63;;;;;;;;;;4969573;28;20203;-78
2023/01/26 12:34:36;;;;;;;15.57;1.67;;;;;;;;;;4962668;28;20051;-77
2023/01/26 12:37:13;;;;;;;17.38;1.65;;;;;;;;;;4963631;28;20490;-76
2023/01/26 12:39:44;;;;;;;20.65;2.63;;;;;;;;;;4963818;28;20043;-76
2023/01/26 12:42:18;;;;;;;15.68;1.70;;;;;;;;;;4970355;28;20370;-76
2023/01/26 12:44:46;;;;;;;18.60;2.65;;;;;;;;;;4968622;28;20050;-77
2023/01/26 12:47:16;;;;;;;24.48;2.72;;;;;;;;;;4968021;28;20046;-69
2023/01/26 12:49:46;;;;;;;19.15;2.30;;;;;;;;;;4965339;28;20133;-77
2023/01/26 12:52:16;;;;;;;19.08;2.47;;;;;;;;;;4968599;28;20067;-72
2023/01/26 12:54:46;;;;;;;20.88;2.45;;;;;;;;;;4952696;28;20399;-78
2023/01/26 12:57:14;;;;;;;29.60;2.70;;;;;;;;;;4967060;28;20042;-77
2023/01/26 12:59:42;;;;;;;28.15;2.85;;;;;;;;;;4965895;28;20055;-73
2023/01/26 13:02:12;;;;;;;21.00;2.08;;;;;;;;;;4965690;28;20055;-78
2023/01/26 13:04:40;;;;;;;13.48;1.70;;;;;;;;;;4969982;28;20047;-77
2023/01/26 13:07:22;;;;;;;27.85;3.35;;;;;;;;;;4967659;28;20051;-77
2023/01/26 13:10:04;;;;;;;19.00;1.77;;;;;;;;;;4963222;28;20062;-77
2023/01/26 13:12:47;;;;;;;16.65;2.03;;;;;;;;;;4970166;28;20070;-76
2023/01/26 13:15:16;;;;;;;26.45;2.38;;;;;;;;;;4966653;28;20061;-77
2023/01/26 13:17:52;;;;;;;21.30;2.25;;;;;;;;;;4958691;28;20050;-76
2023/01/26 13:20:41;;;;;;;22.98;2.20;;;;;;;;;;4978573;28;20486;-78
2023/01/26 13:23:23;;;;;;;22.17;2.38;;;;;;;;;;4963067;28;20105;-78
2023/01/26 13:26:11;;;;;;;20.92;2.47;;;;;;;;;;4962433;28;20047;-77
2023/01/26 13:28:38;;;;;;;20.45;2.22;;;;;;;;;;4968228;28;20067;-77
2023/01/26 13:31:07;;;;;;;18.95;2.10;;;;;;;;;;4960315;28;20062;-76
2023/01/26 13:33:35;;;;;;;20.83;2.55;;;;;;;;;;4964152;28;20058;-77
2023/01/26 13:36:04;;;;;;;16.38;2.05;;;;;;;;;;4957555;28;20150;-77
2023/01/26 13:38:34;;;;;;;15.80;2.28;;;;;;;;;;4966505;28;20476;-77
2023/01/26 13:41:02;;;;;;;23.10;3.08;;;;;;;;;;4965991;28;20577;-76
2023/01/26 13:43:33;;;;;;;13.32;1.85;;;;;;;;;;4969643;28;20047;-77
2023/01/26 13:46:08;;;;;;;23.08;2.25;;;;;;;;;;4959959;28;20073;-78
2023/01/26 13:48:44;;;;;;;21.90;1.90;;;;;;;;;;4955468;28;20046;-73
2023/01/26 13:51:14;;;;;;;17.83;1.92;;;;;;;;;;4964325;28;20142;-77
2023/01/26 13:53:43;;;;;;;25.00;2.70;;;;;;;;;;4966443;28;20520;-77
2023/01/26 13:56:21;;;;;;;23.40;2.35;;;;;;;;;;4968289;28;20077;-77
2023/01/26 13:58:48;;;;;;;19.25;2.60;;;;;;;;;;4969017;28;20054;-78
2023/01/26 14:01:16;;;;;;;13.80;2.22;;;;;;;;;;4968232;28;20343;-76
2023/01/26 14:03:45;;;;;;;18.17;2.38;;;;;;;;;;4964299;28;20054;-77
2023/01/26 14:06:15;;;;;;;13.93;2.10;;;;;;;;;;4965596;28;20058;-77
2023/01/26 14:08:46;;;;;;;13.75;2.03;;;;;;;;;;4965153;28;20066;-76
2023/01/26 14:11:18;;;;;;;15.10;2.00;;;;;;;;;;4966749;28;20051;-76
2023/01/26 14:13:48;;;;;;;25.60;8.52;;;;;;;;;;4976059;28;20059;-78
2023/01/26 14:16:21;;;;;;;15.20;2.92;;;;;;;;;;4967669;28;20490;-76
2023/01/26 14:18:50;;;;;;;21.63;2.97;;;;;;;;;;4967488;28;20533;-78
2023/01/26 14:21:18;;;;;;;23.35;2.92;;;;;;;;;;4971198;28;20057;-77
2023/01/26 14:23:46;;;;;;;18.80;2.67;;;;;;;;;;4967222;28;20054;-78
2023/01/26 14:26:18;;;;;;;20.42;4.20;;;;;;;;;;4967735;28;20134;-78
2023/01/26 14:28:46;;;;;;;26.17;4.45;;;;;;;;;;4964660;28;20070;-78
2023/01/26 14:31:15;;;;;;;27.10;7.00;;;;;;;;;;4968550;28;20053;-76
2023/01/26 14:33:42;;;;;;;18.98;2.40;;;;;;;;;;4963239;28;20046;-78
2023/01/26 14:36:15;;;;;;;20.60;3.03;;;;;;;;;;4966994;28;20054;-76
2023/01/26 14:38:44;;;;;;;24.42;3.33;;;;;;;;;;4964469;28;20043;-77
2023/01/26 14:41:13;;;;;;;15.93;2.33;;;;;;;;;;4966768;28;20102;-78
2023/01/26 14:43:41;;;;;;;20.23;2.30;;;;;;;;;;4962540;28;20061;-78
2023/01/26 14:46:10;;;;;;;20.80;2.65;;;;;;;;;;4969325;28;20058;-76
2023/01/26 14:48:39;;;;;;;26.98;5.20;;;;;;;;;;4967449;28;20382;-78
2023/01/26 14:51:07;;;;;;;25.52;6.47;;;;;;;;;;4966295;28;20057;-76
2023/01/26 14:53:35;;;;;;;30.27;6.88;;;;;;;;;;4965891;28;20051;-76
2023/01/26 14:56:03;;;;;;;21.88;4.75;;;;;;;;;;4964886;28;20050;-76
2023/01/26 14:58:31;;;;;;;22.73;2.75;;;;;;;;;;4962962;28;20058;-76
2023/01/26 15:00:59;;;;;;;20.50;3.65;;;;;;;;;;4967573;28;20763;-78
2023/01/26 15:03:28;;;;;;;27.25;2.47;;;;;;;;;;4962800;28;20443;-77
2023/01/26 15:06:04;;;;;;;21.65;2.78;;;;;;;;;;4966099;28;20050;-77
2023/01/26 15:08:32;;;;;;;21.33;2.78;;;;;;;;;;4963432;28;20066;-69
2023/01/26 15:13:44;;;;;;;19.25;2.60;;;;;;;;;;4964029;28;20059;-72
2023/01/26 15:16:15;;;;;;;23.55;2.60;;;;;;;;;;4968663;28;20050;-78
2023/01/26 15:18:42;;;;;;;22.83;2.80;;;;;;;;;;4967743;28;20047;-77
2023/01/26 15:21:14;;;;;;;28.83;4.82;;;;;;;;;;4965177;28;20050;-77
2023/01/26 15:23:42;;;;;;;28.25;6.60;;;;;;;;;;4965811;28;20047;-76